createdAt,value
2018-12-05T00:01:55.234Z,101122.95
2018-12-05T00:04:25.155Z,101118.97
2018-12-05T00:06:55.188Z,101120.81
2018-12-05T00:09:25.191Z,101125.50
2018-12-05T00:11:55.853Z,101119.56
2018-12-05T00:14:26.193Z,101129.64
2018-12-05T00:16:56.584Z,101130.34
2018-12-05T00:19:26.438Z,101142.05
2018-12-05T00:21:56.407Z,101140.34
2018-12-05T00:24:26.489Z,101148.34
2018-12-05T00:26:56.393Z,101145.64
2018-12-05T00:29:26.624Z,101148.88
2018-12-05T00:31:56.377Z,101150.58
2018-12-05T00:34:28.058Z,101155.71
2018-12-05T00:36:58.138Z,101165.73
2018-12-05T00:39:28.378Z,101159.34
2018-12-05T00:41:58.439Z,101173.24
2018-12-05T00:44:28.187Z,101169.70
2018-12-05T00:46:58.332Z,101164.86
2018-12-05T00:49:28.546Z,101166.55
2018-12-05T00:51:58.508Z,101164.86
2018-12-05T00:54:28.235Z,101174.64
2018-12-05T00:56:58.226Z,101172.32
2018-12-05T00:59:28.376Z,101171.26
2018-12-05T01:01:58.539Z,101172.47
2018-12-05T01:04:28.465Z,101173.01
2018-12-05T01:06:58.660Z,101170.64
2018-12-05T01:09:28.458Z,101174.70
2018-12-05T01:11:58.280Z,101172.33
2018-12-05T01:14:28.341Z,101184.69
2018-12-05T01:16:58.360Z,101190.63
2018-12-05T01:19:28.080Z,101192.77
2018-12-05T01:21:58.232Z,101184.92
2018-12-05T01:24:28.152Z,101192.00
2018-12-05T01:26:58.166Z,101191.02
2018-12-05T01:29:28.181Z,101191.31
2018-12-05T01:31:58.150Z,101189.70
2018-12-05T01:34:28.467Z,101199.69
2018-12-05T01:36:59.117Z,101196.30
2018-12-05T01:39:30.674Z,101198.47
2018-12-05T01:42:00.388Z,101198.47
2018-12-05T01:44:30.179Z,101198.62
2018-12-05T01:47:00.124Z,101195.23
2018-12-05T01:49:30.548Z,101196.74
2018-12-05T01:52:00.536Z,101200.28
2018-12-05T01:54:30.396Z,101200.81
2018-12-05T01:57:00.232Z,101209.13
2018-12-05T01:59:30.127Z,101202.41
2018-12-05T02:02:00.127Z,101205.12
2018-12-05T02:04:30.293Z,101205.61
2018-12-05T02:07:00.141Z,101202.08
2018-12-05T02:09:30.261Z,101213.98
2018-12-05T02:12:00.837Z,101213.06
2018-12-05T02:14:31.076Z,101214.13
2018-12-05T02:17:01.300Z,101221.96
2018-12-05T02:19:31.568Z,101227.19
2018-12-05T02:22:01.566Z,101229.66
2018-12-05T02:24:31.376Z,101229.91
2018-12-05T02:27:01.520Z,101226.52
2018-12-05T02:29:36.731Z,101230.72
2018-12-05T02:32:06.675Z,101230.58
2018-12-05T02:34:36.556Z,101225.35
2018-12-05T02:37:06.534Z,101235.03
2018-12-05T02:39:37.034Z,101229.33
2018-12-05T02:42:07.281Z,101237.50
2018-12-05T02:44:37.663Z,101236.19
2018-12-05T02:47:07.558Z,101238.41
2018-12-05T02:49:37.383Z,101241.86
2018-12-05T02:52:07.219Z,101244.47
2018-12-05T02:54:37.391Z,101246.30
2018-12-05T02:57:07.430Z,101249.25
2018-12-05T02:59:37.293Z,101255.39
2018-12-05T03:02:07.398Z,101266.38
2018-12-05T03:04:37.188Z,101266.77
2018-12-05T03:07:07.441Z,101268.99
2018-12-05T03:09:38.215Z,101268.60
2018-12-05T03:12:08.120Z,101275.27
2018-12-05T03:14:38.203Z,101286.56
2018-12-05T03:17:08.106Z,101287.47
2018-12-05T03:19:39.664Z,101288.34
2018-12-05T03:22:09.384Z,101284.17
2018-12-05T03:24:39.143Z,101283.00
2018-12-05T03:27:09.912Z,101284.11
2018-12-05T03:29:40.054Z,101281.89
2018-12-05T03:32:10.334Z,101285.75
2018-12-05T03:34:40.482Z,101287.59
2018-12-05T03:37:10.400Z,101293.20
2018-12-05T03:39:40.268Z,101292.09
2018-12-05T03:42:10.398Z,101289.72
2018-12-05T03:44:40.260Z,101299.73
2018-12-05T03:47:10.161Z,101299.92
2018-12-05T03:49:40.343Z,101307.84
2018-12-05T03:52:11.488Z,101311.23
2018-12-05T03:54:41.310Z,101307.57
2018-12-05T03:57:11.138Z,101313.62
2018-12-05T03:59:41.232Z,101315.66
2018-12-05T04:02:11.180Z,101316.88
2018-12-05T04:04:41.306Z,101329.50
2018-12-05T04:07:11.186Z,101330.28
2018-12-05T04:09:41.092Z,101324.92
2018-12-05T04:12:11.207Z,101329.36
2018-12-05T04:14:41.324Z,101329.36
2018-12-05T04:17:11.403Z,101335.81
2018-12-05T04:19:41.680Z,101336.81
2018-12-05T04:22:11.472Z,101338.12
2018-12-05T04:24:41.303Z,101338.12
2018-12-05T04:27:11.144Z,101348.17
2018-12-05T04:29:41.168Z,101332.25
2018-12-05T04:32:11.215Z,101336.70
2018-12-05T04:34:41.184Z,101339.44
2018-12-05T04:37:11.209Z,101340.75
2018-12-05T04:39:45.728Z,101338.66
2018-12-05T04:42:15.690Z,101344.41
2018-12-05T04:44:45.576Z,101347.94
2018-12-05T04:47:15.405Z,101344.55
2018-12-05T04:49:45.399Z,101343.90
2018-12-05T04:52:15.548Z,101342.59
2018-12-05T04:54:45.797Z,101352.13
2018-12-05T04:57:16.141Z,101360.88
2018-12-05T04:59:46.043Z,101325.25
2018-12-05T05:02:15.818Z,101372.63
2018-12-05T05:04:45.632Z,101377.33
2018-12-05T05:07:15.440Z,101383.85
2018-12-05T05:09:45.578Z,101384.77
2018-12-05T05:12:15.260Z,101379.98
2018-12-05T05:14:45.107Z,101385.60
2018-12-05T05:17:16.244Z,101390.44
2018-12-05T05:19:46.054Z,101394.83
2018-12-05T05:22:16.256Z,101389.73
2018-12-05T05:24:46.589Z,101401.09
2018-12-05T05:27:16.377Z,101393.44
2018-12-05T05:29:46.276Z,101399.58
2018-12-05T05:32:16.271Z,101399.39
2018-12-05T05:34:47.223Z,101373.55
2018-12-05T05:37:17.174Z,101396.70
2018-12-05T05:39:47.144Z,101397.22
2018-12-05T05:42:17.229Z,101390.25
2018-12-05T05:44:47.056Z,101398.48
2018-12-05T05:47:17.587Z,101400.62
2018-12-05T05:49:47.431Z,101397.17
2018-12-05T05:52:17.238Z,101401.14
2018-12-05T05:54:47.145Z,101400.70
2018-12-05T05:57:17.444Z,101404.27
2018-12-05T05:59:47.601Z,101409.75
2018-12-05T06:02:17.380Z,101408.41
2018-12-05T06:04:47.606Z,101414.45
2018-12-05T06:07:17.438Z,101410.94
2018-12-05T06:09:48.133Z,101415.06
2018-12-05T06:12:18.384Z,101414.53
2018-12-05T06:14:48.152Z,101427.20
2018-12-05T06:17:18.840Z,101434.52
2018-12-05T06:19:48.739Z,101430.64
2018-12-05T06:22:18.566Z,101434.04
2018-12-05T06:24:48.479Z,101443.13
2018-12-05T06:27:18.849Z,101447.48
2018-12-05T06:29:48.657Z,101445.88
2018-12-05T06:32:18.439Z,101448.41
2018-12-05T06:34:48.508Z,101452.80
2018-12-05T06:37:19.525Z,101454.54
2018-12-05T06:39:49.216Z,101462.38
2018-12-05T06:42:19.220Z,101469.42
2018-12-05T06:44:49.293Z,101470.67
2018-12-05T06:47:19.349Z,101468.86
2018-12-05T06:49:49.540Z,101463.68
2018-12-05T06:52:19.246Z,101472.16
2018-12-05T06:54:49.104Z,101481.64
2018-12-05T06:57:19.155Z,101483.86
2018-12-05T06:59:49.062Z,101488.05
2018-12-05T07:02:19.315Z,101493.19
2018-12-05T07:04:50.220Z,101492.80
2018-12-05T07:07:20.349Z,101494.89
2018-12-05T07:09:50.553Z,101494.45
2018-12-05T07:12:20.400Z,101496.46
2018-12-05T07:14:51.217Z,101498.16
2018-12-05T07:17:21.314Z,101499.07
2018-12-05T07:19:51.594Z,101502.42
2018-12-05T07:22:21.356Z,101500.47
2018-12-05T07:24:51.188Z,101506.36
2018-12-05T07:27:22.599Z,101508.24
2018-12-05T07:29:52.868Z,101512.68
2018-12-05T07:32:22.879Z,101515.52
2018-12-05T07:34:53.190Z,101517.08
2018-12-05T07:37:23.555Z,101516.83
2018-12-05T07:39:53.376Z,101517.87
2018-12-05T07:42:23.550Z,101518.58
2018-12-05T07:44:53.339Z,101525.14
2018-12-05T07:47:23.080Z,101520.57
2018-12-05T07:49:53.233Z,101524.14
2018-12-05T07:52:23.436Z,101519.91
2018-12-05T07:54:53.433Z,101524.00
2018-12-05T07:57:23.608Z,101525.13
2018-12-05T07:59:53.464Z,101523.88
2018-12-05T08:02:23.397Z,101529.14
2018-12-05T08:04:53.106Z,101534.03
2018-12-05T08:07:23.252Z,101540.44
2018-12-05T08:09:53.413Z,101547.46
2018-12-05T08:12:23.348Z,101551.78
2018-12-05T08:14:53.296Z,101547.23
2018-12-05T08:17:23.167Z,101553.05
2018-12-05T08:19:54.094Z,101552.33
2018-12-05T08:22:24.480Z,101550.58
2018-12-05T08:24:54.700Z,101549.56
2018-12-05T08:27:24.878Z,101552.63
2018-12-05T08:29:54.981Z,101554.71
2018-12-05T08:32:26.137Z,101563.98
2018-12-05T08:34:56.399Z,101562.00
2018-12-05T08:37:26.245Z,101565.39
2018-12-05T08:39:56.105Z,101531.59
2018-12-05T08:42:26.212Z,101567.88
2018-12-05T08:44:56.311Z,101573.20
2018-12-05T08:47:26.352Z,101573.75
2018-12-05T08:49:57.216Z,101577.68
2018-12-05T08:52:27.206Z,101577.24
2018-12-05T08:54:57.331Z,101577.88
2018-12-05T08:57:27.444Z,101585.20
2018-12-05T08:59:57.464Z,101586.84
2018-12-05T09:02:27.441Z,101596.97
2018-12-05T09:04:57.463Z,101590.95
2018-12-05T09:07:28.654Z,101587.98
2018-12-05T09:09:58.549Z,101596.52
2018-12-05T09:12:28.373Z,101594.77
2018-12-05T09:14:58.482Z,101603.55
2018-12-05T09:17:28.257Z,101599.26
2018-12-05T09:19:58.532Z,101604.80
2018-12-05T09:22:28.550Z,101601.97
2018-12-05T09:24:58.430Z,101603.27
2018-12-05T09:27:28.250Z,101603.95
2018-12-05T09:29:58.418Z,101606.04
2018-12-05T09:32:28.432Z,101603.51
2018-12-05T09:34:58.271Z,101611.67
2018-12-05T09:37:28.083Z,101606.81
2018-12-05T09:39:58.575Z,101605.89
2018-12-05T09:42:28.324Z,101587.30
2018-12-05T09:44:58.328Z,101602.03
2018-12-05T09:47:28.132Z,101596.19
2018-12-05T09:49:58.175Z,101594.72
2018-12-05T09:52:28.155Z,101590.92
2018-12-05T09:54:58.208Z,101588.45
2018-12-05T09:57:29.728Z,101589.14
2018-12-05T10:00:00.096Z,101592.14
2018-12-05T10:02:30.494Z,101587.00
2018-12-05T10:05:00.503Z,101584.82
2018-12-05T10:07:30.887Z,101575.92
2018-12-05T10:10:01.155Z,101580.19
2018-12-05T10:12:31.353Z,101574.12
2018-12-05T10:15:02.582Z,101577.36
2018-12-05T10:17:32.388Z,101572.81
2018-12-05T10:20:02.166Z,101566.09
2018-12-05T10:22:32.385Z,101570.47
2018-12-05T10:25:02.763Z,101571.94
2018-12-05T10:27:32.899Z,101567.29
2018-12-05T10:30:03.195Z,101564.16
2018-12-05T10:32:34.740Z,101560.18
2018-12-05T10:35:05.228Z,101563.34
2018-12-05T10:37:35.384Z,101562.09
2018-12-05T10:40:05.678Z,101560.28
2018-12-05T10:42:35.615Z,101558.41
2018-12-05T10:45:06.995Z,101550.39
2018-12-05T10:47:37.478Z,101551.23
2018-12-05T10:50:08.894Z,101552.85
2018-12-05T10:52:38.616Z,101546.17
2018-12-05T10:55:08.403Z,101546.35
2018-12-05T10:57:38.234Z,101557.83
2018-12-05T11:00:13.194Z,101551.67
2018-12-05T11:02:48.253Z,101546.75
2018-12-05T11:05:23.171Z,101537.03
2018-12-05T11:07:58.371Z,101532.16
2018-12-05T11:10:33.797Z,101532.63
2018-12-05T11:13:08.583Z,101538.89
2018-12-05T11:15:43.239Z,101546.70
2018-12-05T11:18:18.318Z,101546.83
2018-12-05T11:20:53.330Z,101538.82
2018-12-05T11:23:28.467Z,101484.00
2018-12-05T11:26:00.530Z,101546.83
2018-12-05T11:28:30.629Z,101547.65
2018-12-05T11:31:00.427Z,101548.78
2018-12-05T11:33:30.554Z,101542.20
2018-12-05T11:36:00.897Z,101543.89
2018-12-05T11:38:30.987Z,101542.69
2018-12-05T11:41:01.245Z,101541.94
2018-12-05T11:43:31.295Z,101542.88
2018-12-05T11:46:01.223Z,101539.95
2018-12-05T11:48:31.208Z,101546.34
2018-12-05T11:51:01.301Z,101546.45
2018-12-05T11:53:32.706Z,101544.20
2018-12-05T11:56:02.657Z,101541.56
2018-12-05T11:58:32.911Z,101539.00
2018-12-05T12:01:05.352Z,101538.44
2018-12-05T12:03:35.328Z,101536.37
2018-12-05T12:06:05.441Z,101538.55
2018-12-05T12:08:35.634Z,101544.38
2018-12-05T12:11:06.249Z,101542.67
2018-12-05T12:13:36.164Z,101541.44
2018-12-05T12:16:07.395Z,101540.59
2018-12-05T12:18:42.702Z,101536.69
2018-12-05T12:21:12.677Z,101540.54
2018-12-05T12:23:42.846Z,101549.30
2018-12-05T12:26:13.109Z,101547.34
2018-12-05T12:28:43.288Z,101546.14
2018-12-05T12:31:24.468Z,101560.06
2018-12-05T12:33:54.563Z,101559.65
2018-12-05T12:36:24.569Z,101560.85
2018-12-05T12:38:55.601Z,101553.23
2018-12-05T12:41:25.380Z,101557.11
2018-12-05T12:43:55.254Z,101557.95
2018-12-05T12:46:25.424Z,101554.63
2018-12-05T12:48:55.239Z,101546.20
2018-12-05T12:51:25.492Z,101544.45
2018-12-05T12:53:55.250Z,101538.16
2018-12-05T12:56:25.195Z,101525.03
2018-12-05T12:58:56.130Z,101525.27
2018-12-05T13:01:26.192Z,101527.91
2018-12-05T13:03:56.469Z,101488.60
2018-12-05T13:06:26.533Z,101526.58
2018-12-05T13:08:56.388Z,101526.64
2018-12-05T13:11:26.721Z,101530.27
2018-12-05T13:13:56.517Z,101526.48
2018-12-05T13:16:26.359Z,101527.10
2018-12-05T13:18:56.320Z,101532.23
2018-12-05T13:21:26.436Z,101528.34
2018-12-05T13:23:56.424Z,101532.48
2018-12-05T13:26:26.461Z,101525.07
2018-12-05T13:28:56.331Z,101524.11
2018-12-05T13:31:26.108Z,101524.41
2018-12-05T13:33:56.086Z,101520.16
2018-12-05T13:36:26.171Z,101514.47
2018-12-05T13:38:56.322Z,101518.31
2018-12-05T13:41:26.612Z,101524.19
2018-12-05T13:43:58.336Z,101516.53
2018-12-05T13:46:30.162Z,101521.10
2018-12-05T13:49:00.516Z,101520.23
2018-12-05T13:51:30.395Z,101526.40
2018-12-05T13:54:00.375Z,101531.62
2018-12-05T13:56:30.412Z,101534.55
2018-12-05T13:59:00.465Z,101526.98
2018-12-05T14:01:30.577Z,101528.61
2018-12-05T14:04:00.392Z,101528.61
2018-12-05T14:06:30.132Z,101525.13
2018-12-05T14:09:01.381Z,101530.73
2018-12-05T14:11:31.480Z,101521.45
2018-12-05T14:14:01.451Z,101530.88
2018-12-05T14:16:31.463Z,101526.73
2018-12-05T14:19:01.506Z,101525.70
2018-12-05T14:21:31.348Z,101536.63
2018-12-05T14:24:01.146Z,101529.44
2018-12-05T14:26:31.295Z,101528.22
2018-12-05T14:29:01.386Z,101528.23
2018-12-05T14:31:31.483Z,101527.38
2018-12-05T14:34:01.288Z,101523.50
2018-12-05T14:36:32.466Z,101525.65
2018-12-05T14:39:02.645Z,101522.68
2018-12-05T14:41:32.359Z,101528.73
2018-12-05T14:44:02.457Z,101520.88
2018-12-05T14:46:32.380Z,101526.72
2018-12-05T14:49:02.430Z,101524.97
2018-12-05T14:51:32.301Z,101525.27
2018-12-05T14:54:02.107Z,101517.95
2018-12-05T14:56:32.155Z,101508.37
2018-12-05T14:59:02.208Z,101510.57
2018-12-05T15:01:32.092Z,101506.52
2018-12-05T15:04:02.332Z,101507.73
2018-12-05T15:06:32.604Z,101501.66
2018-12-05T15:09:04.660Z,101512.09
2018-12-05T15:11:34.758Z,101507.96
2018-12-05T15:14:05.317Z,101501.57
2018-12-05T15:16:35.173Z,101507.89
2018-12-05T15:19:05.346Z,101425.68
2018-12-05T15:21:35.362Z,101492.09
2018-12-05T15:24:05.408Z,101486.06
2018-12-05T15:26:35.385Z,101486.89
2018-12-05T15:29:05.148Z,101489.59
2018-12-05T15:31:35.091Z,101494.02
2018-12-05T15:34:05.078Z,101480.34
2018-12-05T15:36:35.353Z,101496.11
2018-12-05T15:39:06.735Z,101499.28
2018-12-05T15:41:36.540Z,101507.90
2018-12-05T15:44:16.107Z,101507.87
2018-12-05T15:46:46.184Z,101509.34
2018-12-05T15:49:16.317Z,101509.97
2018-12-05T15:51:46.160Z,101428.83
2018-12-05T15:54:16.269Z,101513.05
2018-12-05T15:56:46.497Z,101515.02
2018-12-05T15:59:16.375Z,101518.95
2018-12-05T16:01:46.599Z,101518.63
2018-12-05T16:04:17.477Z,101515.03
2018-12-05T16:06:47.444Z,101521.37
2018-12-05T16:09:17.435Z,101528.50
2018-12-05T16:11:47.567Z,101520.78
2018-12-05T16:14:17.648Z,101530.14
2018-12-05T16:16:47.728Z,101531.14
2018-12-05T16:19:18.433Z,101538.34
2018-12-05T16:21:50.264Z,101540.38
2018-12-05T16:24:20.168Z,101539.30
2018-12-05T16:26:50.150Z,101540.86
2018-12-05T16:29:20.283Z,101539.33
2018-12-05T16:31:50.422Z,101537.42
2018-12-05T16:34:20.146Z,101534.73
2018-12-05T16:36:50.523Z,101487.41
2018-12-05T16:39:21.573Z,101542.98
2018-12-05T16:41:51.553Z,101541.61
2018-12-05T16:44:21.358Z,101540.77
2018-12-05T16:47:01.740Z,101537.15
2018-12-05T16:49:31.480Z,101543.03
2018-12-05T16:52:01.535Z,101541.01
2018-12-05T16:54:31.464Z,101540.23
2018-12-05T16:57:01.440Z,101536.94
2018-12-05T16:59:32.614Z,101544.95
2018-12-05T17:02:02.920Z,101543.94
2018-12-05T17:04:32.736Z,101539.00
2018-12-05T17:07:02.619Z,101539.69
2018-12-05T17:09:32.408Z,101538.23
2018-12-05T17:12:02.545Z,101541.27
2018-12-05T17:14:32.419Z,101546.38
2018-12-05T17:17:02.881Z,101547.30
2018-12-05T17:19:33.044Z,101548.60
2018-12-05T17:22:04.630Z,101545.27
2018-12-05T17:24:35.193Z,101551.91
2018-12-05T17:27:05.280Z,101543.66
2018-12-05T17:29:35.408Z,101545.41
2018-12-05T17:32:05.506Z,101544.58
2018-12-05T17:34:36.546Z,101540.41
2018-12-05T17:37:06.558Z,101535.08
2018-12-05T17:39:37.917Z,101538.23
2018-12-05T17:42:08.369Z,101535.28
2018-12-05T17:44:38.335Z,101533.43
2018-12-05T17:47:08.457Z,101534.35
2018-12-05T17:49:38.305Z,101529.27
2018-12-05T17:52:09.453Z,101530.42
2018-12-05T17:54:39.513Z,101529.46
2018-12-05T17:57:09.330Z,101528.81
2018-12-05T17:59:39.237Z,101526.34
2018-12-05T18:02:09.372Z,101522.98
2018-12-05T18:04:39.443Z,101524.05
2018-12-05T18:07:09.490Z,101516.44
2018-12-05T18:09:39.451Z,101515.22
2018-12-05T18:12:09.312Z,101518.03
2018-12-05T18:14:39.248Z,101517.97
2018-12-05T18:17:09.090Z,101522.63
2018-12-05T18:19:39.600Z,101519.84
2018-12-05T18:22:09.481Z,101522.20
2018-12-05T18:24:39.610Z,101516.77
2018-12-05T18:27:09.413Z,101515.73
2018-12-05T18:29:39.384Z,101514.70
2018-12-05T18:32:09.649Z,101505.69
2018-12-05T18:34:39.666Z,101512.83
2018-12-05T18:37:09.630Z,101516.81
2018-12-05T18:39:40.431Z,101521.64
2018-12-05T18:42:10.583Z,101515.33
2018-12-05T18:44:40.445Z,101518.52
2018-12-05T18:47:10.207Z,101513.81
2018-12-05T18:49:40.353Z,101507.02
2018-12-05T18:52:10.222Z,101503.31
2018-12-05T18:54:40.896Z,101501.41
2018-12-05T18:57:11.010Z,101498.14
2018-12-05T18:59:41.332Z,101509.20
2018-12-05T19:02:11.471Z,101496.58
2018-12-05T19:04:41.857Z,101494.05
2018-12-05T19:07:12.009Z,101492.53
2018-12-05T19:09:42.181Z,101489.52
2018-12-05T19:12:12.239Z,101489.12
2018-12-05T19:14:46.194Z,101487.44
2018-12-05T19:17:16.472Z,101481.42
2018-12-05T19:19:46.435Z,101485.08
2018-12-05T19:22:16.408Z,101480.03
2018-12-05T19:24:46.817Z,101493.30
2018-12-05T19:27:16.861Z,101492.17
2018-12-05T19:29:46.649Z,101492.78
2018-12-05T19:32:16.438Z,101491.73
2018-12-05T19:34:46.947Z,101483.55
2018-12-05T19:37:17.304Z,101482.88
2018-12-05T19:39:47.609Z,101485.45
2018-12-05T19:42:17.624Z,101488.83
2018-12-05T19:44:47.601Z,101491.17
2018-12-05T19:47:17.540Z,101494.70
2018-12-05T19:49:47.449Z,101490.27
2018-12-05T19:52:17.624Z,101487.80
2018-12-05T19:54:47.628Z,101494.55
2018-12-05T19:57:17.588Z,101492.55
2018-12-05T19:59:47.846Z,101496.03
2018-12-05T20:02:17.609Z,101494.03
2018-12-05T20:04:47.471Z,101490.76
2018-12-05T20:07:17.265Z,101489.70
2018-12-05T20:09:47.311Z,101503.00
2018-12-05T20:12:17.195Z,101497.95
2018-12-05T20:14:47.273Z,101502.02
2018-12-05T20:17:17.556Z,101502.72
2018-12-05T20:19:47.373Z,101499.98
2018-12-05T20:22:17.593Z,101493.62
2018-12-05T20:24:48.352Z,101501.09
2018-12-05T20:27:18.224Z,101490.53
2018-12-05T20:29:48.348Z,101479.38
2018-12-05T20:32:18.569Z,101477.05
2018-12-05T20:34:48.395Z,101486.77
2018-12-05T20:37:18.335Z,101491.59
2018-12-05T20:39:49.652Z,101481.40
2018-12-05T20:42:19.686Z,101482.43
2018-12-05T20:44:49.501Z,101487.73
2018-12-05T20:47:20.161Z,101483.42
2018-12-05T20:50:31.674Z,101480.02
2018-12-05T20:53:01.485Z,101480.41
2018-12-05T20:55:31.731Z,101474.92
2018-12-05T20:58:01.604Z,101470.39
2018-12-05T21:00:31.681Z,101470.83
2018-12-05T21:03:01.659Z,101468.34
2018-12-05T21:05:31.643Z,101469.45
2018-12-05T21:08:01.461Z,101462.45
2018-12-05T21:10:31.369Z,101458.06
2018-12-05T21:13:02.196Z,101455.86
2018-12-05T21:15:31.959Z,101462.73
2018-12-05T21:18:01.952Z,101462.66
2018-12-05T21:20:32.716Z,101456.77
2018-12-05T21:23:02.399Z,101461.06
2018-12-05T21:25:32.075Z,101461.11
2018-12-05T21:28:02.478Z,101461.39
2018-12-05T21:30:32.496Z,101445.22
2018-12-05T21:33:02.559Z,101444.82
2018-12-05T21:35:32.527Z,101433.01
2018-12-05T21:38:02.860Z,101438.06
2018-12-05T21:40:33.185Z,101435.34
2018-12-05T21:43:03.181Z,101436.89
2018-12-05T21:45:33.300Z,101429.30
2018-12-05T21:48:03.042Z,101428.86
2018-12-05T21:50:33.200Z,101420.88
2018-12-05T21:53:03.802Z,101427.60
2018-12-05T21:55:34.124Z,101429.19
2018-12-05T21:58:04.763Z,101429.06
2018-12-05T22:00:34.411Z,101425.27
2018-12-05T22:03:05.425Z,101422.42
2018-12-05T22:05:35.621Z,101417.20
2018-12-05T22:08:05.150Z,101416.78
2018-12-05T22:10:36.901Z,101424.20
2018-12-05T22:13:07.182Z,101422.34
2018-12-05T22:15:37.517Z,101425.34
2018-12-05T22:18:09.075Z,101423.97
2018-12-05T22:20:39.190Z,101421.24
2018-12-05T22:23:09.155Z,101419.94
2018-12-05T22:25:38.855Z,101411.72
2018-12-05T22:28:08.591Z,101412.70
2018-12-05T22:30:38.979Z,101406.63
2018-12-05T22:33:08.914Z,101407.41
2018-12-05T22:35:38.859Z,101404.41
2018-12-05T22:38:08.594Z,101397.50
2018-12-05T22:40:38.676Z,101385.77
2018-12-05T22:43:08.291Z,101388.33
2018-12-05T22:45:39.578Z,101388.45
2018-12-05T22:48:09.193Z,101386.80
2018-12-05T22:50:38.930Z,101388.09
2018-12-05T22:53:08.849Z,101381.53
2018-12-05T22:55:38.439Z,101377.23
2018-12-05T22:58:08.231Z,101366.33
2018-12-05T23:00:42.288Z,101372.92
2018-12-05T23:03:12.494Z,101366.45
2018-12-05T23:05:42.796Z,101362.61
2018-12-05T23:08:12.442Z,101359.92
2018-12-05T23:10:42.404Z,101362.34
2018-12-05T23:13:12.231Z,101356.06
2018-12-05T23:15:42.282Z,101356.85
2018-12-05T23:18:12.300Z,101362.14
2018-12-05T23:20:42.172Z,101357.84
2018-12-05T23:23:12.110Z,101357.84
2018-12-05T23:25:41.921Z,101356.02
2018-12-05T23:28:11.973Z,101359.92
2018-12-05T23:30:41.909Z,101353.85
2018-12-05T23:33:11.800Z,101356.45
2018-12-05T23:35:42.281Z,101347.80
2018-12-05T23:38:12.172Z,101348.64
2018-12-05T23:40:41.998Z,101339.52
2018-12-05T23:43:11.928Z,101335.45
2018-12-05T23:45:41.818Z,101331.42
2018-12-05T23:48:11.540Z,101331.54
2018-12-05T23:50:41.105Z,101321.91
2018-12-05T23:53:11.119Z,101323.05
2018-12-05T23:55:40.978Z,101324.13
2018-12-05T23:58:10.864Z,101319.66
